MMSD/SJD METAR and TAF weather

Enter ICAO airport designator
Station Type Date Time Source
MMSD METAR 2019/06/27 03:48 UTC NOAA

MMSD 270348Z 08002KT 6SM SKC 31/11 A2992 RMK MSG TX MMMX


Station Type Date Time Source
MMSD Decoded METAR 2019/06/27 03:48 UTC NOAA

San Jose Del Cabo , Mexico (MMSD) 23-09N 109-42W
Jun 26, 2019 - 11:48 PM EDT / 2019.06.27 0348 UTC
Wind: from the E (080 degrees) at 2 MPH (2 KT):0
Visibility: 6 mile(s):0
Sky conditions: clear
Temperature: 87 F (31 C)
Dew Point: 51 F (11 C)
Relative Humidity: 29%
Pressure (altimeter): 29.92 in. Hg (1013 hPa)
ob: MMSD 270348Z 08002KT 6SM SKC 31/11 A2992 RMK MSG TX MMMX
cycle: 4

Station Type Date Time Source
MMSD TAF 2019/06/26 18:13 UTC NOAA

TAF MMSD 261706Z 2618/2718 26014KT P6SM SKC
FM270200 25005KT P6SM SCT120 BKN260

Example: see airport list